Tiempo atmosférico en la estación meteorológica de Cazorla, Jaén (799 m.)

Fecha
DESCASC
Temp. máxima en grados centígrados (hora)
DESCASC
Temp. mínima en grados centígrados (hora)
DESCASC
Temp. media en grados centígrados
DESCASC
Racha de viento máxima en m/sg (hora)
DESCASC
Velocidad máxima media en intervalos de 10 minutos(hora)
DESCASC
Precipitaciones diarias en mm
DESCASC
Precipitaciones de 00:00 a 06:00 en mm
DESCASC
Precipitaciones de 06:00 a 12:00 en mm
DESCASC
Precipitaciones de 12:00 a 18:00 en mm
DESCASC
Precipitaciones de 18:00 a 24:00 en mm
DESCASC
22-10-2017 20.6 (16:20) 10.1 (08:10) 15.4 5.28 (21:40) 3.06 (21:40) -- -- -- -- --
21-10-2017 19.9 (15:40) 9.5 (06:30) 14.7 3.61 (08:50) 1.67 (08:50) -- -- -- -- --
20-10-2017 18.1 (16:10) 9.3 (01:00) 13.7 3.89 (01:00) 2.5 (02:00) -- -- -- -- --
19-10-2017 14.2 (14:10) 7.6 (00:00) 10.9 7.78 (17:30) 3.89 (18:10) -- -- -- -- --
18-10-2017 18.5 (04:10) 9.6 (00:00) 14.1 11.11 (11:40) 5 (11:40) -- -- -- -- --
17-10-2017 20.8 (14:20) 12.8 (00:00) 16.8 8.33 (22:10) 3.61 (18:20) -- -- -- -- --
16-10-2017 25.8 (16:10) 12.7 (00:00) 19.2 9.17 (00:30) 4.72 (00:10) -- -- -- -- --
15-10-2017 28.2 (16:00) 15.4 (00:00) 21.8 11.94 (22:50) 6.11 (21:20) -- -- -- -- --
14-10-2017 28.7 (15:50) 17.8 (00:00) 23.3 5.28 (15:40) 2.5 (00:10) -- -- -- -- --
13-10-2017 29.9 (15:30) 17.4 (00:00) 23.6 7.22 (16:10) 2.78 (00:40) -- -- -- -- --
12-10-2017 31.2 (16:00) 19.3 (00:00) 25.3 -- (--) -- (--) 0 0 0 0 0
11-10-2017 29.7 (16:10) 18.6 (00:00) 24.2 -- (--) -- (--) 0 0 0 0 0
10-10-2017 29 (15:50) 17.5 (00:00) 23.3 -- (--) -- (--) 0 0 0 0 0
09-10-2017 28.8 (15:40) 17.4 (00:00) 23.1 -- (--) -- (--) 0 0 0 0 0
08-10-2017 27.6 (15:40) 15.6 (00:00) 21.6 -- (--) -- (--) 0 0 0 0 0
07-10-2017 30.7 (16:10) 17.7 (00:00) 24.2 -- (--) -- (--) 0 0 0 0 0
06-10-2017 29.9 (16:00) 18.1 (00:00) 24 -- (--) -- (--) 0 0 0 0 0
05-10-2017 26.1 (16:00) 13.3 (00:00) 19.7 4.44 (13:10) 2.5 (22:20) -- -- -- -- --
04-10-2017 25 (16:00) 15.9 (00:00) 20.4 9.44 (20:20) 4.72 (19:20) -- -- -- -- --
03-10-2017 27 (15:40) 14.6 (00:00) 20.8 4.17 (13:20) 2.22 (22:10) -- -- -- -- --
02-10-2017 26.4 (15:50) 15.7 (00:00) 21 7.5 (20:40) 3.61 (19:50) -- -- -- -- --
01-10-2017 24.4 (14:00) 17.7 (00:00) 21.1 4.72 (00:40) 2.78 (00:50) -- -- -- -- --
30-09-2017 24.8 (16:10) 14.9 (00:00) 19.8 4.44 (00:50) 2.5 (01:00) -- -- -- -- --
29-09-2017 25.3 (15:30) 15 (00:00) 20.1 5 (17:10) 2.22 (21:00) -- -- -- -- --
28-09-2017 25.4 (15:30) 15.1 (00:00) 20.3 8.33 (19:30) 3.61 (19:50) -- -- -- -- --
27-09-2017 23.4 (16:10) 13.7 (00:00) 18.5 5 (02:10) 2.5 (00:40) -- -- -- -- --
26-09-2017 26.6 (15:50) 14.9 (00:00) 20.8 5.28 (17:30) 2.78 (21:20) -- -- -- -- --
25-09-2017 28.4 (16:10) 16 (00:00) 22.2 6.67 (17:10) 2.78 (01:00) -- -- -- -- --
24-09-2017 27.3 (16:00) 14.4 (00:00) 20.8 5 (21:30) 2.78 (21:40) -- -- -- -- --
23-09-2017 26 (15:50) 14.1 (00:00) 20.1 4.72 (21:00) 2.78 (21:20) -- -- -- -- --

Gráficas

Temp. máximas Temp. mínimas Temp. medias Precipitaciones Rachas de viento máximas Velocidades máximas media en intervalos de 10 minutos

Datos horarios

Fecha y hora oficial Temperatura (ºC) Velocidad del viento (km/h) Dirección del viento Racha (km/h) Dirección de racha Precipitación (mm) Presión (hPa) Tendencia (hPa) Humedad (%)
2017-10-22 23:00:00 13.3 6 Sudeste 14 Este -- -- -- 49
2017-10-22 22:00:00 13.6 8 Sudeste 19 Sudeste -- -- -- 46
2017-10-22 21:00:00 14.1 7 Sudeste 15 Sudeste -- -- -- 44
2017-10-22 20:00:00 14.5 8 Sudeste 16 Sudeste -- -- -- 49
2017-10-22 19:00:00 15.9 8 Sudeste 12 Sudeste -- -- -- 48
2017-10-22 18:00:00 18 3 Noroeste 12 Noroeste -- -- -- 45
2017-10-22 17:00:00 19 3 Noroeste 10 Oeste -- -- -- 44
2017-10-22 16:00:00 19.4 3 Noroeste 11 Noroeste -- -- -- 42
2017-10-22 15:00:00 17.9 0 Calma 9 Noroeste -- -- -- 51
2017-10-22 14:00:00 15.7 3 Noroeste 10 Noroeste -- -- -- 58
2017-10-22 13:00:00 15.2 0 Calma 9 Sudoeste -- -- -- 74
2017-10-22 12:00:00 13.2 0 Calma -- -- -- -- -- 82
2017-10-22 11:00:00 11.9 0 Calma -- -- -- -- -- 86
2017-10-22 10:00:00 10.9 0 Calma -- -- -- -- -- 91
2017-10-22 09:00:00 10.2 0 Calma 4 Sudeste -- -- -- 90
2017-10-22 08:00:00 10.2 0 Calma 5 Este -- -- -- 89
2017-10-22 07:00:00 10.8 2 Nordeste 5 Este -- -- -- 87
2017-10-22 06:00:00 11.1 2 Este 8 Sudeste -- -- -- 85
2017-10-22 05:00:00 11 5 Sudeste 9 Sudeste -- -- -- 83
2017-10-22 04:00:00 10.9 3 Sudeste 8 Este -- -- -- 80
2017-10-22 03:00:00 11.1 3 Este 12 Este -- -- -- 78
2017-10-22 02:00:00 11.5 4 Sudeste 10 Sudeste -- -- -- 76
2017-10-22 01:00:00 12 4 Este 13 Sudeste -- -- -- 74
2017-10-22 00:00:00 11.8 3 Este 12 Sudeste -- -- -- 76
2017-10-21 23:00:00 12.2 6 Sudeste 11 Sudeste -- -- -- 73
2017-10-21 22:00:00 12.2 3 Este 11 Sudeste -- -- -- 75
2017-10-21 21:00:00 12.8 5 Sudeste 9 Sudeste -- -- -- 71
2017-10-21 20:00:00 14 4 Sudeste 10 Sudeste -- -- -- 67
2017-10-21 19:00:00 16.8 0 Calma 9 Oeste -- -- -- 62
2017-10-21 18:00:00 18.3 3 Oeste 12 Oeste -- -- -- 59
2017-10-21 17:00:00 18.7 4 Oeste 13 Oeste -- -- -- 59
2017-10-21 16:00:00 19.1 6 Oeste 12 Oeste -- -- -- 56
2017-10-21 15:00:00 18.2 4 Noroeste 13 Oeste -- -- -- 56
2017-10-21 14:00:00 16.9 0 Calma 11 Oeste -- -- -- 59
2017-10-21 13:00:00 14.5 3 Sudoeste 9 Noroeste -- -- -- 70
2017-10-21 12:00:00 12.4 2 Norte 8 Noroeste -- -- -- 76
2017-10-21 11:00:00 11.8 0 Calma 6 Nordeste -- -- -- 79
2017-10-21 10:00:00 12 2 Nordeste 9 Sudeste -- -- -- 82
2017-10-21 09:00:00 10.5 5 Sudeste 13 Sudeste -- -- -- 80
2017-10-21 08:00:00 10 4 Sudeste 10 Sudeste -- -- -- 81
2017-10-21 07:00:00 9.8 5 Sudeste 9 Sudeste -- -- -- 80
2017-10-21 06:00:00 9.7 4 Sudeste 8 Sudeste -- -- -- 81
2017-10-21 05:00:00 9.7 3 Este 8 Sudeste -- -- -- 79
2017-10-21 04:00:00 10.4 4 Este 12 Sudeste -- -- -- 76
2017-10-21 03:00:00 10.7 4 Este 8 Sudeste -- -- -- 78
2017-10-21 02:00:00 10.8 5 Este 9 Sudeste -- -- -- 77
2017-10-21 01:00:00 10.5 2 Este 9 Sudeste -- -- -- 82
2017-10-21 00:00:00 10.6 4 Este 9 Este -- -- -- 78
2017-10-20 23:00:00 11.3 3 Este 9 Sudeste -- -- -- 75
2017-10-20 22:00:00 11.4 3 Este 10 Sudeste -- -- -- 77
2017-10-20 21:00:00 11.6 2 Este 10 Sudeste -- -- -- 78
2017-10-20 20:00:00 12.1 0 Calma 7 Sudeste -- -- -- 74
2017-10-20 19:00:00 14.1 0 Calma 9 Oeste -- -- -- 65
2017-10-20 18:00:00 14.7 5 Oeste 13 Sudoeste -- -- -- 64
2017-10-20 17:00:00 16.4 2 Noroeste 11 Sudoeste -- -- -- 59
2017-10-20 16:00:00 17.4 3 Noroeste 13 Noroeste -- -- -- 57
2017-10-20 15:00:00 15.2 6 Oeste 13 Sudoeste -- -- -- 61
2017-10-20 14:00:00 15 4 Oeste 10 Oeste -- -- -- 67
2017-10-20 13:00:00 12.7 3 Oeste 8 Sudoeste -- -- -- 77
2017-10-20 12:00:00 11.6 0 Calma 6 Oeste -- -- -- 82
2017-10-20 11:00:00 11.5 0 Calma 5 Sudoeste -- -- -- 83
2017-10-20 10:00:00 11.2 0 Calma 5 Oeste -- -- -- 86
2017-10-20 09:00:00 10.9 0 Calma 8 Sur -- -- -- 85
2017-10-20 08:00:00 10.9 0 Calma 6 Sudeste -- -- -- 82
2017-10-20 07:00:00 10.9 2 Sur 7 Sur -- -- -- 78
2017-10-20 06:00:00 10.9 3 Sur 7 Sur -- -- -- 74
2017-10-20 05:00:00 11 0 Calma 7 Oeste -- -- -- 69
2017-10-20 04:00:00 11 2 Sudoeste 13 Oeste -- -- -- 69
2017-10-20 03:00:00 10.5 2 Sudeste 14 Sudeste -- -- -- 71
2017-10-20 02:00:00 9.6 9 Sudeste 13 Sudeste -- -- -- 78
2017-10-20 01:00:00 9.6 7 Sudeste 14 Sudeste -- -- -- 82
2017-10-20 00:00:00 9.9 6 Sudeste 11 Sudeste -- -- -- 86
2017-10-19 23:00:00 10.6 4 Sur 9 Sur -- -- -- 80
2017-10-19 22:00:00 11.4 5 Sur 15 Sudeste -- -- -- 73
2017-10-19 21:00:00 11.7 4 Sur 12 Sur -- -- -- 69
2017-10-19 20:00:00 12 4 Sur 15 Oeste -- -- -- 68
2017-10-19 19:00:00 12.7 5 Oeste 26 Oeste -- -- -- 61
2017-10-19 18:00:00 13.4 10 Oeste 28 Oeste -- -- -- 55
2017-10-19 17:00:00 12.4 9 Oeste 28 Oeste -- -- -- 58
2017-10-19 16:00:00 12.1 6 Oeste 24 Sudoeste -- -- -- 59
2017-10-19 15:00:00 13.6 5 Oeste 16 Oeste -- -- -- 54
2017-10-19 14:00:00 13.9 4 Oeste 12 Oeste -- -- -- 59
2017-10-19 13:00:00 11.4 4 Oeste 9 Noroeste -- -- -- 70
2017-10-19 12:00:00 9.9 0 Calma 6 Oeste -- -- -- 81
2017-10-19 11:00:00 8.9 0 Calma 7 Norte -- -- -- 92
2017-10-19 10:00:00 8.2 0 Calma 6 Norte -- -- -- 96
2017-10-19 09:00:00 8.1 0 Calma 4 Oeste -- -- -- 96
2017-10-19 08:00:00 7.6 0 Calma 6 Oeste -- -- -- 96
2017-10-19 07:00:00 8.2 0 Calma 8 Nordeste -- -- -- 96
2017-10-19 06:00:00 8.5 0 Calma 13 Nordeste -- -- -- 95
2017-10-19 05:00:00 8.7 0 Calma 13 Sudeste -- -- -- 95
2017-10-19 04:00:00 8.8 2 Sudeste 11 Sudeste -- -- -- 94
2017-10-19 03:00:00 8.8 3 Sudeste 10 Sudeste -- -- -- 94
2017-10-19 02:00:00 8.9 4 Sudeste 13 Sudeste -- -- -- 94
2017-10-19 01:00:00 8.6 3 Sudeste 16 Norte -- -- -- 91
2017-10-19 00:00:00 9.6 5 Noroeste 18 Noroeste -- -- -- 81
2017-10-18 23:00:00 11.1 4 Sur 14 Sudeste -- -- -- 89
2017-10-18 22:00:00 11.3 2 Sudoeste 12 Oeste -- -- -- 90
2017-10-18 21:00:00 11.5 2 Sur 9 Sudoeste -- -- -- 92
2017-10-18 20:00:00 11.4 3 Sur 9 Sudoeste -- -- -- 93
2017-10-18 19:00:00 12.2 4 Oeste 14 Oeste -- -- -- 91
2017-10-18 18:00:00 12.6 0 Calma 7 Sur -- -- -- 89
2017-10-18 17:00:00 12.8 0 Calma 8 Noroeste -- -- -- 91
2017-10-18 16:00:00 12 0 Calma 17 Oeste -- -- -- 92
2017-10-18 15:00:00 12 2 Noroeste 22 Sur -- -- -- 94
2017-10-18 14:00:00 12.2 8 Sur 27 Sur -- -- -- 89
2017-10-18 13:00:00 12.8 6 Sur 33 Sur -- -- -- 85
2017-10-18 12:00:00 12.2 13 Sur 40 Sur -- -- -- 83
2017-10-18 11:00:00 11.9 13 Sur 31 Sudeste -- -- -- 87
2017-10-18 10:00:00 11.7 4 Sur 22 Sudeste -- -- -- 92
2017-10-18 09:00:00 12.2 3 Norte 12 Este -- -- -- 84
2017-10-18 08:00:00 12.8 0 Calma 14 Norte -- -- -- 78
2017-10-18 07:00:00 12.8 0 Calma 11 Oeste -- -- -- 76
2017-10-18 06:00:00 13.7 0 Calma 26 Sudoeste -- -- -- 69
2017-10-18 05:00:00 17 6 Sur 22 Sur -- -- -- 52
2017-10-18 04:00:00 18.3 10 Sur 30 Sudoeste -- -- -- 48
2017-10-18 03:00:00 15.2 0 Calma 12 Norte -- -- -- 57
2017-10-18 02:00:00 17 2 Sudoeste 18 Sudeste -- -- -- 51
2017-10-18 01:00:00 16.9 0 Calma 11 Sur -- -- -- 52
2017-10-18 00:00:00 18 3 Sudoeste 21 Sur -- -- -- 50
2017-10-17 23:00:00 18 5 Sur 30 Sudeste -- -- -- 50
2017-10-17 22:00:00 18 6 Sur 19 Sudoeste -- -- -- 50
2017-10-17 21:00:00 17.1 4 Sudeste 12 Sudoeste -- -- -- 51
2017-10-17 20:00:00 18.2 7 Sur 21 Sudeste -- -- -- 49
2017-10-17 19:00:00 18.6 9 Sur 27 Sudeste -- -- -- 48
2017-10-17 18:00:00 19 12 Sur 30 Sur -- -- -- 48
2017-10-17 17:00:00 19.7 5 Sur 28 Sur -- -- -- 46
2017-10-17 16:00:00 20.1 9 Sur 28 Sudoeste -- -- -- 45
2017-10-17 15:00:00 19.5 2 Este 15 Noroeste -- -- -- 52
2017-10-17 14:00:00 19.7 2 Oeste 9 Noroeste -- -- -- 52
2017-10-17 13:00:00 19.2 0 Calma 16 Oeste -- -- -- 54
2017-10-17 12:00:00 19.7 3 Sur 19 Sudeste -- -- -- 52
2017-10-17 11:00:00 16.1 4 Oeste 15 Oeste -- -- -- 56
2017-10-17 10:00:00 16.9 2 Sudeste 8 Sudoeste -- -- -- 54
2017-10-17 09:00:00 15.8 0 Calma 6 Nordeste -- -- -- 54
2017-10-17 08:00:00 14.8 4 Este 9 Este -- -- -- 58
2017-10-17 07:00:00 13.6 2 Nordeste 7 Sudeste -- -- -- 65
2017-10-17 06:00:00 13 0 Calma 6 Nordeste -- -- -- 68
2017-10-17 05:00:00 13.7 0 Calma 6 Sudeste -- -- -- 61
2017-10-17 04:00:00 14.3 0 Calma 6 Este -- -- -- 60
2017-10-17 03:00:00 14.4 0 Calma -- -- -- -- -- 59
2017-10-17 02:00:00 15.5 0 Calma 9 Sudeste -- -- -- 52
2017-10-17 01:00:00 14.9 0 Calma 5 Nordeste -- -- -- 54
2017-10-17 00:00:00 15.8 0 Calma 13 Sudeste -- -- -- 49
2017-10-16 23:00:00 17.7 8 Sudeste 16 Sudeste -- -- -- 39
2017-10-16 22:00:00 18.5 9 Sudeste 16 Sudeste -- -- -- 39
2017-10-16 21:00:00 19.5 8 Sudeste 17 Sudeste -- -- -- 42
2017-10-16 20:00:00 20 7 Sudeste 15 Sudeste -- -- -- 34
2017-10-16 19:00:00 21.6 3 Sur 10 Sudoeste -- -- -- 33
2017-10-16 18:00:00 23.2 2 Oeste 14 Oeste -- -- -- 32
2017-10-16 17:00:00 23.9 3 Oeste 14 Oeste -- -- -- 32
2017-10-16 16:00:00 25 4 Oeste 15 Sudoeste -- -- -- 33
2017-10-16 15:00:00 23.9 4 Noroeste 11 Norte -- -- -- 41
2017-10-16 14:00:00 21.4 3 Noroeste 10 Noroeste -- -- -- 47
2017-10-16 13:00:00 18.7 2 Oeste 9 Oeste -- -- -- 57
2017-10-16 12:00:00 16.7 3 Oeste 9 Sudoeste -- -- -- 64
2017-10-16 11:00:00 14.2 2 Noroeste 7 Sudeste -- -- -- 68
2017-10-16 10:00:00 13.2 0 Calma 6 Oeste -- -- -- 67
2017-10-16 09:00:00 13 0 Calma 8 Este -- -- -- 66
2017-10-16 08:00:00 13.6 2 Sudeste 6 Sudeste -- -- -- 67
2017-10-16 07:00:00 13.1 3 Sudeste 6 Sudeste -- -- -- 70
2017-10-16 06:00:00 13.5 0 Calma 5 Este -- -- -- 70
2017-10-16 05:00:00 13.9 0 Calma 6 Noroeste -- -- -- 68
2017-10-16 04:00:00 15.2 2 Noroeste 12 Sur -- -- -- 50
2017-10-16 03:00:00 16.1 0 Calma 21 Sudoeste -- -- -- 48
2017-10-16 02:00:00 16.3 0 Calma 19 Noroeste -- -- -- 48
2017-10-16 01:00:00 19.4 0 Calma 33 Sudeste -- -- -- 36
2017-10-16 00:00:00 20.6 18 Sudeste 42 Sudeste -- -- -- 35
2017-10-15 23:00:00 20.8 18 Sudeste 43 Sudeste -- -- -- 36
2017-10-15 22:00:00 20.5 19 Sudeste 40 Sudeste -- -- -- 39
2017-10-15 21:00:00 21.1 19 Sudeste 39 Sudeste -- -- -- 38
2017-10-15 20:00:00 22.3 18 Sudeste 39 Sur -- -- -- 35
2017-10-15 19:00:00 23.8 10 Sudeste 32 Sudeste -- -- -- 33
2017-10-15 18:00:00 24.8 12 Sudeste 28 Sur -- -- -- 32
2017-10-15 17:00:00 25.9 9 Sur 31 Este -- -- -- 30
2017-10-15 16:00:00 27 8 Sudeste 28 Sudeste -- -- -- 30
2017-10-15 15:00:00 27.3 3 Noroeste 8 Norte -- -- -- 34
2017-10-15 14:00:00 24.5 2 Norte 9 Noroeste -- -- -- 38
2017-10-15 13:00:00 21.7 0 Calma 8 Noroeste -- -- -- 42
2017-10-15 12:00:00 19.2 0 Calma 5 Norte -- -- -- 46
2017-10-15 11:00:00 17.2 0 Calma 4 Este -- -- -- 47
2017-10-15 10:00:00 15.7 0 Calma 0 Calma -- -- -- 47
2017-10-15 09:00:00 16.4 0 Calma 7 Sudeste -- -- -- 44
2017-10-15 08:00:00 16.4 0 Calma 5 Sudeste -- -- -- 43
2017-10-15 07:00:00 17 0 Calma 5 Sudeste -- -- -- 42
2017-10-15 06:00:00 18.3 2 Este 10 Sudeste -- -- -- 41
2017-10-15 05:00:00 18.2 4 Sudeste 11 Sudeste -- -- -- 41
2017-10-15 04:00:00 19.1 6 Sudeste 11 Sudeste -- -- -- 39
2017-10-15 03:00:00 19.1 4 Este 9 Sudeste -- -- -- 39
2017-10-15 02:00:00 19.7 5 Sudeste 12 Sudeste -- -- -- 38
2017-10-15 01:00:00 20.2 6 Este 13 Sudeste -- -- -- 38
2017-10-15 00:00:00 20.5 7 Sudeste 16 Sudeste -- -- -- 38
2017-10-14 23:00:00 21 8 Sudeste 16 Sudeste -- -- -- 37
2017-10-14 22:00:00 20.9 6 Sudeste 15 Sudeste -- -- -- 37
2017-10-14 21:00:00 21.8 6 Sudeste 14 Sudeste -- -- -- 37
2017-10-14 20:00:00 22.5 7 Sudeste 13 Sudeste -- -- -- 36
2017-10-14 19:00:00 24.1 2 Sur 15 Oeste -- -- -- 35
2017-10-14 18:00:00 26.1 5 Oeste 17 Oeste -- -- -- 33
2017-10-14 17:00:00 26.4 5 Oeste 15 Oeste -- -- -- 33
2017-10-14 16:00:00 26.4 5 Oeste 19 Oeste -- -- -- 32
2017-10-14 15:00:00 27 4 Noroeste 14 Sudoeste -- -- -- 33
2017-10-14 14:00:00 25.7 4 Noroeste 10 Noroeste -- -- -- 34
2017-10-14 13:00:00 23.1 2 Oeste 8 Oeste -- -- -- 38
2017-10-14 12:00:00 20.9 0 Calma 5 Nordeste -- -- -- 41
2017-10-14 11:00:00 19.6 0 Calma 4 Este -- -- -- 41
2017-10-14 10:00:00 18.2 0 Calma 8 Este -- -- -- 42
2017-10-14 09:00:00 18 4 Este 8 Sudeste -- -- -- 41
2017-10-14 08:00:00 18.4 4 Este 11 Sudeste -- -- -- 41
2017-10-14 07:00:00 18.7 6 Sudeste 11 Sudeste -- -- -- 39
2017-10-14 06:00:00 19.1 6 Este 13 Este -- -- -- 39
2017-10-14 05:00:00 19.2 7 Este 14 Sudeste -- -- -- 38
2017-10-14 04:00:00 19.2 7 Sudeste 12 Este -- -- -- 38
2017-10-14 03:00:00 19.3 6 Sudeste 14 Sudeste -- -- -- 38
2017-10-14 02:00:00 19.8 7 Sudeste 13 Sudeste -- -- -- 37
2017-10-14 01:00:00 20.2 5 Sudeste 18 Sudeste -- -- -- 37
2017-10-14 00:00:00 20.6 8 Sudeste 18 Sudeste -- -- -- 36
2017-10-13 23:00:00 20.8 7 Sudeste 17 Sudeste -- -- -- 36
2017-10-13 22:00:00 20.9 8 Sudeste 15 Sudeste -- -- -- 37
2017-10-13 21:00:00 21 9 Sudeste 15 Sudeste -- -- -- 37
2017-10-13 20:00:00 21.2 6 Sudeste 14 Sudeste -- -- -- 36
2017-10-13 19:00:00 22.7 4 Sudeste 12 Sudeste -- -- -- 37
2017-10-13 18:00:00 24.2 3 Oeste 13 Sur -- -- -- 34
2017-10-13 17:00:00 26 3 Sudoeste 26 Oeste -- -- -- 33
2017-10-13 16:00:00 27.8 4 Oeste 21 Oeste -- -- -- 31
2017-10-13 15:00:00 28.1 6 Oeste 20 Sudoeste -- -- -- 29
2017-10-13 14:00:00 27 7 Oeste 18 Oeste -- -- -- 31
2017-10-13 13:00:00 24.7 6 Sudoeste 22 Oeste -- -- -- 33
2017-10-13 12:00:00 22 2 Noroeste 7 Norte -- -- -- 39
2017-10-13 11:00:00 20.5 0 Calma 5 Norte -- -- -- 39
2017-10-13 10:00:00 18.3 2 Este 5 Este -- -- -- 41
2017-10-13 09:00:00 17.8 2 Este 5 Este -- -- -- 41
2017-10-13 08:00:00 18.4 2 Este 14 Sudeste -- -- -- 39
2017-10-13 07:00:00 18.9 5 Sudeste 13 Sudeste -- -- -- 39
2017-10-13 06:00:00 18.4 4 Este 9 Sudeste -- -- -- 41
2017-10-13 05:00:00 18 0 Calma 6 Sudeste -- -- -- 41
2017-10-13 04:00:00 18.6 0 Calma 5 Sudeste -- -- -- 40
2017-10-13 03:00:00 19 0 Calma 7 Sudeste -- -- -- 39
2017-10-13 02:00:00 19.8 3 Este 15 Sudeste -- -- -- 38
2017-10-13 01:00:00 20.8 9 Sudeste 18 Sudeste -- -- -- 37
2017-10-13 00:00:00 20.8 7 Sudeste 16 Sudeste -- -- -- 37
2017-10-12 23:00:00 20.8 8 Sudeste 15 Sudeste -- -- -- 37
2017-10-12 22:00:00 21.2 8 Sudeste 15 Sudeste -- -- -- 35
2017-10-12 21:00:00 22.1 8 Sudeste 25 Norte -- -- -- 34
2017-10-12 20:00:00 22.5 5 Sudeste 12 Sudeste -- -- -- 35
2017-10-12 19:00:00 24.2 0 Calma 14 Oeste -- -- -- 33
2017-10-12 18:00:00 25.3 6 Noroeste 22 Sudoeste -- -- -- 32
2017-10-12 17:00:00 26.8 4 Noroeste 23 Oeste -- -- -- 31
2017-10-12 16:00:00 28 4 Noroeste 17 Noroeste -- -- -- 30
2017-10-12 15:00:00 27.2 3 Oeste 13 Nordeste -- -- -- 32
2017-10-12 14:00:00 26 3 Noroeste 9 Noroeste -- -- -- 35
2017-10-12 13:00:00 23.7 3 Noroeste 8 Norte -- -- -- 37
2017-10-12 12:00:00 20.3 0 Calma 6 Oeste -- -- -- 42
2017-10-12 11:00:00 19.9 0 Calma 6 Este -- -- -- 42
2017-10-12 10:00:00 18.9 5 Este 9 Sudeste -- -- -- 42
2017-10-12 09:00:00 19.4 3 Este 13 Sudeste -- -- -- 38
2017-10-12 08:00:00 18.6 0 Calma 7 Este -- -- -- 37
2017-10-12 07:00:00 17.9 4 Este 8 Sudeste -- -- -- 37
2017-10-12 06:00:00 18.4 5 Este 11 Este -- -- -- 36
2017-10-12 05:00:00 18.9 6 Sudeste 15 Sudeste -- -- -- 35
2017-10-12 04:00:00 19.3 6 Este 14 Sudeste -- -- -- 34
2017-10-12 03:00:00 19.2 5 Sudeste 14 Sudeste -- -- -- 35
2017-10-12 02:00:00 19.7 8 Sudeste 17 Sudeste -- -- -- 34
2017-10-12 01:00:00 19.7 8 Sudeste 18 Sudeste -- -- -- 34
2017-10-12 00:00:00 20 10 Sudeste 19 Sudeste -- -- -- 34
2017-10-11 23:00:00 20.2 10 Sudeste 18 Sudeste -- -- -- 33
2017-10-11 22:00:00 20.5 9 Sudeste 16 Sudeste -- -- -- 33
2017-10-11 21:00:00 20.5 6 Sudeste 15 Sudeste -- -- -- 33
2017-10-11 20:00:00 21 4 Sudeste 10 Sudeste -- -- -- 32
2017-10-11 19:00:00 23.6 0 Calma 14 Oeste -- -- -- 29
2017-10-11 18:00:00 24.3 2 Noroeste 17 Noroeste -- -- -- 28
2017-10-11 17:00:00 25 6 Oeste 18 Oeste -- -- -- 25
2017-10-11 16:00:00 26.6 8 Oeste 21 Oeste -- -- -- 27
2017-10-11 15:00:00 27 3 Oeste 14 Oeste -- -- -- 32
2017-10-11 14:00:00 23.4 4 Noroeste 11 Noroeste -- -- -- 38
2017-10-11 13:00:00 22 2 Noroeste 6 Oeste -- -- -- 43
2017-10-11 12:00:00 20 0 Calma 5 Este -- -- -- 46
2017-10-11 11:00:00 18.3 0 Calma 5 Sudeste -- -- -- 47
2017-10-11 10:00:00 17.1 3 Este 14 Sudeste -- -- -- 47
2017-10-11 09:00:00 17.7 7 Este 15 Sudeste -- -- -- 44
2017-10-11 08:00:00 17.3 7 Sudeste 17 Sudeste -- -- -- 45
2017-10-11 07:00:00 17.7 8 Sudeste 17 Sudeste -- -- -- 44
2017-10-11 06:00:00 17.6 6 Este 15 Sudeste -- -- -- 44
2017-10-11 05:00:00 17.9 9 Sudeste 17 Sudeste -- -- -- 45
2017-10-11 04:00:00 17.2 2 Este 8 Sudeste -- -- -- 46
2017-10-11 03:00:00 17.9 5 Sudeste 12 Sudeste -- -- -- 44
2017-10-11 02:00:00 18.5 6 Este 15 Sudeste -- -- -- 42
2017-10-11 01:00:00 17.9 0 Calma 14 Sudeste -- -- -- 44
2017-10-11 00:00:00 19.2 9 Sudeste 17 Sudeste -- -- -- 42
2017-10-10 23:00:00 19.6 8 Sudeste 15 Sudeste -- -- -- 40
2017-10-10 22:00:00 19.6 5 Sudeste 18 Sudeste -- -- -- 38
2017-10-10 21:00:00 20.2 9 Sudeste 16 Sudeste -- -- -- 33
2017-10-10 20:00:00 21.1 6 Sudeste 14 Sudeste -- -- -- 32
2017-10-10 19:00:00 22.9 3 Oeste 9 Noroeste -- -- -- 30
2017-10-10 18:00:00 24 4 Noroeste 15 Oeste -- -- -- 30
2017-10-10 17:00:00 24.9 5 Noroeste 18 Oeste -- -- -- 29
2017-10-10 16:00:00 25.3 7 Oeste 19 Oeste -- -- -- 29
2017-10-10 15:00:00 25 4 Noroeste 14 Oeste -- -- -- 33
2017-10-10 14:00:00 23.8 3 Noroeste 10 Norte -- -- -- 37
2017-10-10 13:00:00 22 0 Calma 7 Oeste -- -- -- 42
2017-10-10 12:00:00 19.6 2 Noroeste 6 Norte -- -- -- 44
2017-10-10 11:00:00 17.7 0 Calma 5 Este -- -- -- 45
2017-10-10 10:00:00 16 4 Este 7 Este -- -- -- 48
2017-10-10 09:00:00 15.9 2 Este 6 Sudeste -- -- -- 46
2017-10-10 08:00:00 16.6 5 Este 11 Sudeste -- -- -- 44
2017-10-10 07:00:00 16.4 5 Este 10 Sudeste -- -- -- 44
2017-10-10 06:00:00 17.1 5 Este 13 Sudeste -- -- -- 42
2017-10-10 05:00:00 17.3 6 Este 17 Sudeste -- -- -- 40
2017-10-10 04:00:00 17.6 7 Sudeste 19 Sudeste -- -- -- 40
2017-10-10 03:00:00 18.1 10 Sudeste 18 Sudeste -- -- -- 38
2017-10-10 02:00:00 18.4 9 Sudeste 16 Sudeste -- -- -- 37
2017-10-10 01:00:00 18.3 7 Sudeste 15 Sudeste -- -- -- 36
2017-10-10 00:00:00 18.6 8 Sudeste 19 Sudeste -- -- -- 36
2017-10-09 23:00:00 19.1 9 Sudeste 19 Sudeste -- -- -- 36
2017-10-09 22:00:00 19.3 7 Sudeste 15 Sudeste -- -- -- 38
2017-10-09 21:00:00 19.8 8 Sudeste 15 Sudeste -- -- -- 38
2017-10-09 20:00:00 20.7 8 Sudeste 14 Sudeste -- -- -- 37
2017-10-09 19:00:00 23 5 Oeste 13 Oeste -- -- -- 34
2017-10-09 18:00:00 23.6 3 Oeste 13 Oeste -- -- -- 33
2017-10-09 17:00:00 24 0 Calma 15 Noroeste -- -- -- 32
2017-10-09 16:00:00 24.8 6 Oeste 23 Oeste -- -- -- 32
2017-10-09 15:00:00 24.4 3 Noroeste 13 Noroeste -- -- -- 35
2017-10-09 14:00:00 22.9 4 Noroeste 13 Norte -- -- -- 44
2017-10-09 13:00:00 21.2 3 Sudoeste 9 Noroeste -- -- -- 50
2017-10-09 12:00:00 19 3 Norte 7 Norte -- -- -- 54
2017-10-09 11:00:00 17.2 0 Calma 4 Este -- -- -- 57
2017-10-09 10:00:00 15.9 3 Este 6 Sudeste -- -- -- 60
2017-10-09 09:00:00 16.1 4 Este 10 Sudeste -- -- -- 59
2017-10-09 08:00:00 16.3 7 Sudeste 13 Sudeste -- -- -- 58
2017-10-09 07:00:00 16.1 4 Sudeste 12 Este -- -- -- 57
2017-10-09 06:00:00 17 6 Sudeste 14 Sudeste -- -- -- 53
2017-10-09 05:00:00 17.4 7 Sudeste 14 Sudeste -- -- -- 46
2017-10-09 04:00:00 17.5 6 Sudeste 13 Sudeste -- -- -- 44
2017-10-09 03:00:00 17.8 6 Este 13 Sudeste -- -- -- 43
2017-10-09 02:00:00 18.2 6 Sudeste 14 Sudeste -- -- -- 41
2017-10-09 01:00:00 18.5 7 Sudeste 16 Sudeste -- -- -- 40
2017-10-09 00:00:00 18.6 8 Sudeste 15 Sudeste -- -- -- 43
2017-10-08 23:00:00 18.8 8 Sudeste 18 Sudeste -- -- -- 44
2017-10-08 22:00:00 18.9 7 Sudeste 14 Sudeste -- -- -- 43
2017-10-08 21:00:00 19.4 7 Sudeste 15 Sudeste -- -- -- 42
2017-10-08 20:00:00 20.6 8 Sudeste 13 Sudeste -- -- -- 41
2017-10-08 19:00:00 22.7 2 Oeste 14 Oeste -- -- -- 38
2017-10-08 18:00:00 23.3 6 Oeste 17 Oeste -- -- -- 38
2017-10-08 17:00:00 23.4 5 Oeste 18 Noroeste -- -- -- 38
2017-10-08 16:00:00 23.8 6 Oeste 14 Oeste -- -- -- 37
2017-10-08 15:00:00 23.8 3 Nordeste 13 Oeste -- -- -- 45
2017-10-08 14:00:00 21.9 3 Oeste 12 Oeste -- -- -- 53
2017-10-08 13:00:00 20.3 3 Noroeste 8 Oeste -- -- -- 59
2017-10-08 12:00:00 18.2 2 Oeste 8 Sudoeste -- -- -- 65
2017-10-08 11:00:00 15.7 0 Calma 3 Oeste -- -- -- 70
2017-10-08 10:00:00 14.2 0 Calma -- -- -- -- -- 74
2017-10-08 09:00:00 13.9 0 Calma -- -- -- -- -- 74
2017-10-08 08:00:00 13.9 0 Calma 3 Este -- -- -- 73
2017-10-08 07:00:00 13.8 0 Calma 4 Este -- -- -- 74
2017-10-08 06:00:00 14 0 Calma 4 Sudeste -- -- -- 74
2017-10-08 05:00:00 14.1 2 Sudeste 4 Sudeste -- -- -- 76
2017-10-08 04:00:00 14.3 0 Calma 4 Oeste -- -- -- 73
2017-10-08 03:00:00 15.1 0 Calma 4 Oeste -- -- -- 65
2017-10-08 02:00:00 15.8 0 Calma 6 Norte -- -- -- 62
2017-10-08 01:00:00 16.5 0 Calma 5 Norte -- -- -- 53
2017-10-08 00:00:00 17.3 3 Este 10 Sudeste -- -- -- 48
2017-10-07 23:00:00 17.9 2 Sur 12 Sudoeste -- -- -- 46
2017-10-07 22:00:00 18.5 0 Calma 13 Sudeste -- -- -- 42
2017-10-07 21:00:00 19.9 9 Sudeste 18 Sudeste -- -- -- 39
2017-10-07 20:00:00 21 6 Sudeste 13 Sudeste -- -- -- 32
2017-10-07 19:00:00 23.8 2 Noroeste 13 Oeste -- -- -- 29
2017-10-07 18:00:00 24.8 4 Noroeste 13 Oeste -- -- -- 27
2017-10-07 17:00:00 25.5 5 Oeste 13 Oeste -- -- -- 27
2017-10-07 16:00:00 27.1 0 Calma 14 Noroeste -- -- -- 28
2017-10-07 15:00:00 25.9 3 Noroeste 12 Noroeste -- -- -- 29
2017-10-07 14:00:00 24.8 2 Noroeste 10 Norte -- -- -- 30
2017-10-07 13:00:00 22 2 Norte 8 Norte -- -- -- 33
2017-10-07 12:00:00 19.7 0 Calma 5 Oeste -- -- -- 35
2017-10-07 11:00:00 17.9 0 Calma 3 Sudeste -- -- -- 38
2017-10-07 10:00:00 15.5 3 Este 6 Sudeste -- -- -- 38
2017-10-07 09:00:00 16.4 2 Sudeste 13 Sudeste -- -- -- 34
2017-10-07 08:00:00 17.5 6 Sudeste 14 Sudeste -- -- -- 33
2017-10-07 07:00:00 17.6 6 Este 12 Sudeste -- -- -- 33
2017-10-07 06:00:00 16.7 3 Sudeste 8 Sudeste -- -- -- 33
2017-10-07 05:00:00 17.3 2 Este 6 Este -- -- -- 33
2017-10-07 04:00:00 16.9 3 Este 6 Sudeste -- -- -- 32
2017-10-07 03:00:00 17.5 4 Sudeste 12 Este -- -- -- 30
2017-10-07 02:00:00 18.4 4 Sudeste 15 Sudeste -- -- -- 28
2017-10-07 01:00:00 18.7 5 Este 11 Sudeste -- -- -- 29
2017-10-07 00:00:00 19.3 4 Este 9 Sudeste -- -- -- 28
2017-10-06 23:00:00 20.1 4 Este 12 Nordeste -- -- -- 29
2017-10-06 22:00:00 20.1 5 Sudeste 13 Sudeste -- -- -- 34
2017-10-06 21:00:00 20.3 4 Este 13 Sudeste -- -- -- 38
2017-10-06 20:00:00 22 4 Sudeste 14 Oeste -- -- -- 36
2017-10-06 19:00:00 24.3 5 Oeste 17 Oeste -- -- -- 34
2017-10-06 18:00:00 25.1 6 Noroeste 20 Noroeste -- -- -- 33
2017-10-06 17:00:00 25.9 6 Noroeste 18 Oeste -- -- -- 33
2017-10-06 16:00:00 25.5 2 Oeste 14 Oeste -- -- -- 35
2017-10-06 15:00:00 24.8 4 Oeste 14 Norte -- -- -- 39
2017-10-06 14:00:00 23.4 3 Noroeste 14 Oeste -- -- -- 42
2017-10-06 13:00:00 21.9 2 Noroeste 9 Sudoeste -- -- -- 50
2017-10-06 12:00:00 19.9 0 Calma 7 Oeste -- -- -- 54
2017-10-06 11:00:00 18.2 3 Norte 7 Noroeste -- -- -- 57
2017-10-06 10:00:00 16.6 3 Este 6 Sudeste -- -- -- 60
2017-10-06 09:00:00 16.8 4 Este 9 Sudeste -- -- -- 56
2017-10-06 08:00:00 16.4 3 Este 8 Sudeste -- -- -- 54
2017-10-06 07:00:00 17.1 5 Este 14 Sudeste -- -- -- 51
2017-10-06 06:00:00 17.2 7 Sudeste 14 Sudeste -- -- -- 50
2017-10-06 05:00:00 17.1 6 Sudeste 12 Sudeste -- -- -- 49
2017-10-06 04:00:00 17.5 5 Este 12 Sudeste -- -- -- 46
2017-10-06 03:00:00 17.7 5 Sudeste 14 Sudeste -- -- -- 44
2017-10-06 02:00:00 18.4 6 Este 13 Este -- -- -- 42
2017-10-06 01:00:00 18.7 5 Este 18 Sudeste -- -- -- 42
2017-10-06 00:00:00 19.2 7 Sudeste 15 Sudeste -- -- -- 40
2017-10-05 23:00:00 19.6 7 Sudeste 16 Sudeste -- -- -- 41
2017-10-05 22:00:00 20 8 Sudeste 13 Este -- -- -- 43
2017-10-05 21:00:00 20.6 4 Este 14 Sudeste -- -- -- 42
2017-10-05 20:00:00 21.6 3 Este 14 Sudeste -- -- -- 42
2017-10-05 19:00:00 22.8 8 Sudeste 13 Sudeste -- -- -- 42
2017-10-05 18:00:00 23.6 3 Noroeste 10 Noroeste -- -- -- 40
2017-10-05 17:00:00 23.8 4 Oeste 15 Oeste -- -- -- 41
2017-10-05 16:00:00 25.8 4 Noroeste 15 Sur -- -- -- 40
2017-10-05 15:00:00 24.7 4 Oeste 14 Oeste -- -- -- 44
2017-10-05 14:00:00 22.3 5 Oeste 16 Oeste -- -- -- 50
2017-10-05 13:00:00 20.5 4 Oeste 9 Sudoeste -- -- -- 59
2017-10-05 12:00:00 17.8 2 Oeste 7 Oeste -- -- -- 68
2017-10-05 11:00:00 15.4 0 Calma 5 Sur -- -- -- 76
2017-10-05 10:00:00 14.4 0 Calma -- -- -- -- -- 73
2017-10-05 09:00:00 13.9 0 Calma 5 Este -- -- -- 71
2017-10-05 08:00:00 13.5 0 Calma 4 Sudeste -- -- -- 74
2017-10-05 07:00:00 13.7 0 Calma 5 Este -- -- -- 77
2017-10-05 06:00:00 14.6 0 Calma 4 Este -- -- -- 74
2017-10-05 05:00:00 14.8 0 Calma 3 Este -- -- -- 73
2017-10-05 04:00:00 15.8 0 Calma 4 Este -- -- -- 67
2017-10-05 03:00:00 16 2 Este 5 Sudeste -- -- -- 65
2017-10-05 02:00:00 17.3 0 Calma 5 Este -- -- -- 65
2017-10-05 01:00:00 17.6 0 Calma 9 Oeste -- -- -- 63
2017-10-05 00:00:00 18.3 3 Oeste 12 Sudoeste -- -- -- 60
2017-10-04 23:00:00 19.1 0 Calma 19 Sur -- -- -- 57
2017-10-04 22:00:00 20 11 Sudeste 29 Sudeste -- -- -- 55
2017-10-04 21:00:00 20.6 11 Sudeste 34 Sudeste -- -- -- 54
2017-10-04 20:00:00 21.3 15 Sudeste 32 Sudeste -- -- -- 52
2017-10-04 19:00:00 22.5 12 Sudeste 29 Sudeste -- -- -- 48
2017-10-04 18:00:00 23.8 7 Sudeste 18 Sudeste -- -- -- 47
2017-10-04 17:00:00 23.2 3 Norte 9 Norte -- -- -- 50
2017-10-04 16:00:00 23.8 0 Calma 8 Noroeste -- -- -- 50
2017-10-04 15:00:00 24.6 3 Oeste 12 Oeste -- -- -- 49
2017-10-04 14:00:00 23.3 3 Noroeste 10 Norte -- -- -- 53
2017-10-04 13:00:00 20.9 0 Calma 9 Norte -- -- -- 62
2017-10-04 12:00:00 19.2 3 Noroeste 10 Norte -- -- -- 68
2017-10-04 11:00:00 18.3 0 Calma 5 Sudeste -- -- -- 70
2017-10-04 10:00:00 16.4 0 Calma 5 Sudeste -- -- -- 77
2017-10-04 09:00:00 16.4 0 Calma 7 Sur -- -- -- 75
2017-10-04 08:00:00 16.4 6 Norte 11 Norte -- -- -- 74
2017-10-04 07:00:00 16.3 4 Norte 10 Norte -- -- -- 72
2017-10-04 06:00:00 16.3 3 Sudeste 7 Sudeste -- -- -- 72
2017-10-04 05:00:00 16.9 0 Calma 7 Sudeste -- -- -- 63
2017-10-04 04:00:00 18.4 4 Sudeste 12 Sudeste -- -- -- 58
2017-10-04 03:00:00 19.3 8 Sudeste 14 Sudeste -- -- -- 55
2017-10-04 02:00:00 18.1 4 Este 8 Este -- -- -- 58
2017-10-04 01:00:00 18 0 Calma 5 Nordeste -- -- -- 55
2017-10-04 00:00:00 19.3 0 Calma 12 Sudeste -- -- -- 52
2017-10-03 23:00:00 20.7 7 Sudeste 15 Sudeste -- -- -- 49
2017-10-03 22:00:00 21 6 Sudeste 14 Sudeste -- -- -- 48
2017-10-03 21:00:00 21.5 8 Sudeste 14 Sudeste -- -- -- 48
2017-10-03 20:00:00 22.3 5 Sudeste 11 Oeste -- -- -- 47
2017-10-03 19:00:00 23.7 0 Calma 12 Oeste -- -- -- 45
2017-10-03 18:00:00 24.3 4 Norte 14 Noroeste -- -- -- 45
2017-10-03 17:00:00 24.3 4 Noroeste 15 Noroeste -- -- -- 45
2017-10-03 16:00:00 25.9 3 Oeste 12 Oeste -- -- -- 42
2017-10-03 15:00:00 25.2 4 Noroeste 12 Noroeste -- -- -- 45
2017-10-03 14:00:00 23.6 4 Norte 15 Oeste -- -- -- 49
2017-10-03 13:00:00 20.9 5 Oeste 12 Noroeste -- -- -- 57
2017-10-03 12:00:00 18.7 2 Oeste 7 Oeste -- -- -- 66
2017-10-03 11:00:00 17.3 0 Calma 4 Este -- -- -- 72
2017-10-03 10:00:00 15.2 3 Este 6 Sudeste -- -- -- 78
2017-10-03 09:00:00 15 0 Calma 4 Sudeste -- -- -- 75
2017-10-03 08:00:00 15.2 0 Calma 4 Norte -- -- -- 78
2017-10-03 07:00:00 15.6 3 Este 5 Sudeste -- -- -- 74
2017-10-03 06:00:00 15.7 0 Calma 7 Este -- -- -- 78
2017-10-03 05:00:00 15.7 0 Calma 4 Este -- -- -- 78
2017-10-03 04:00:00 15.6 0 Calma 3 Este -- -- -- 77
2017-10-03 03:00:00 15.9 0 Calma 4 Sudeste -- -- -- 74
2017-10-03 02:00:00 16.6 0 Calma 5 Norte -- -- -- 63
2017-10-03 01:00:00 17.4 0 Calma 4 Norte -- -- -- 61
2017-10-03 00:00:00 18.3 2 Este 6 Oeste -- -- -- 57
2017-10-02 23:00:00 19.8 3 Oeste 19 Sudeste -- -- -- 53
2017-10-02 22:00:00 21 5 Sudeste 16 Sudeste -- -- -- 50
2017-10-02 21:00:00 21.6 8 Sudeste 27 Sudeste -- -- -- 48
2017-10-02 20:00:00 22.4 13 Sudeste 25 Sudeste -- -- -- 46
2017-10-02 19:00:00 23.3 9 Sur 18 Sudeste -- -- -- 46
2017-10-02 18:00:00 23.3 3 Sur 15 Sur -- -- -- 48
2017-10-02 17:00:00 24.5 4 Noroeste 16 Oeste -- -- -- 46
2017-10-02 16:00:00 25.1 6 Oeste 15 Oeste -- -- -- 46
2017-10-02 15:00:00 24.1 0 Calma 17 Sudoeste -- -- -- 51
2017-10-02 14:00:00 22.9 4 Oeste 15 Oeste -- -- -- 54
2017-10-02 13:00:00 21.6 5 Oeste 13 Noroeste -- -- -- 61
2017-10-02 12:00:00 18.8 2 Oeste 9 Oeste -- -- -- 69
2017-10-02 11:00:00 17.2 2 Norte 6 Nordeste -- -- -- 74
2017-10-02 10:00:00 15.9 0 Calma 6 Norte -- -- -- 74
2017-10-02 09:00:00 16 3 Sudeste 6 Sudeste -- -- -- 70
2017-10-02 08:00:00 16.1 3 Sudeste 8 Sudeste -- -- -- 68
2017-10-02 07:00:00 16.2 3 Sudeste 9 Sudeste -- -- -- 66
2017-10-02 06:00:00 16.5 0 Calma 8 Sudeste -- -- -- 65
2017-10-02 05:00:00 16.5 3 Este 6 Sudeste -- -- -- 66
2017-10-02 04:00:00 16.8 3 Sudeste 9 Sudeste -- -- -- 65
2017-10-02 03:00:00 17.3 3 Norte 6 Norte -- -- -- 63
2017-10-02 02:00:00 17.7 0 Calma 5 Este -- -- -- 61
2017-10-02 01:00:00 18.6 0 Calma 5 Nordeste -- -- -- 57
2017-10-02 00:00:00 19.2 0 Calma 8 Noroeste -- -- -- 52
2017-10-01 23:00:00 20 0 Calma 14 Este -- -- -- 49
2017-10-01 22:00:00 20.4 0 Calma 12 Nordeste -- -- -- 47
2017-10-01 21:00:00 20.9 4 Este 10 Sudeste -- -- -- 45
2017-10-01 20:00:00 21.7 0 Calma 9 Noroeste -- -- -- 44
2017-10-01 19:00:00 23.2 3 Noroeste 11 Noroeste -- -- -- 42
2017-10-01 18:00:00 23.7 2 Noroeste 14 Noroeste -- -- -- 41
2017-10-01 17:00:00 23.9 3 Noroeste 15 Oeste -- -- -- 41
2017-10-01 16:00:00 23.4 3 Oeste 15 Oeste -- -- -- 43
2017-10-01 15:00:00 23.9 3 Noroeste 13 Noroeste -- -- -- 44
2017-10-01 14:00:00 23.4 6 Oeste 10 Sudoeste -- -- -- 46
2017-10-01 13:00:00 21.4 0 Calma 8 Norte -- -- -- 50
2017-10-01 12:00:00 20.5 2 Noroeste 6 Noroeste -- -- -- 54
2017-10-01 11:00:00 19.3 0 Calma 4 Sudoeste -- -- -- 56
2017-10-01 10:00:00 18.5 0 Calma 5 Este -- -- -- 57
2017-10-01 09:00:00 18 3 Sudeste 10 Este -- -- -- 57
2017-10-01 08:00:00 17.8 6 Sudeste 12 Este -- -- -- 55
2017-10-01 07:00:00 18.2 7 Sudeste 14 Sudeste -- -- -- 54
2017-10-01 06:00:00 18.2 6 Sudeste 13 Sudeste -- -- -- 54
2017-10-01 05:00:00 18.4 5 Este 11 Sudeste -- -- -- 53
2017-10-01 04:00:00 19 6 Sudeste 14 Sudeste -- -- -- 52
2017-10-01 03:00:00 19 6 Sudeste 13 Sudeste -- -- -- 51
2017-10-01 02:00:00 19.2 5 Sudeste 15 Sudeste -- -- -- 50
2017-10-01 01:00:00 19.4 10 Sudeste 17 Sudeste -- -- -- 49
2017-10-01 00:00:00 19.7 9 Sudeste 16 Sudeste -- -- -- 49
2017-09-30 23:00:00 19.7 9 Sudeste 15 Sudeste -- -- -- 50
2017-09-30 22:00:00 20.1 6 Sudeste 15 Sudeste -- -- -- 51
2017-09-30 21:00:00 20.6 5 Sudeste 13 Este -- -- -- 50
2017-09-30 20:00:00 21.5 3 Sudeste 8 Sudeste -- -- -- 47
2017-09-30 19:00:00 23 2 Noroeste 10 Noroeste -- -- -- 46
2017-09-30 18:00:00 24 4 Noroeste 13 Oeste -- -- -- 42
2017-09-30 17:00:00 24.2 3 Oeste 11 Sudoeste -- -- -- 41
2017-09-30 16:00:00 24.1 3 Oeste 11 Sudoeste -- -- -- 45
2017-09-30 15:00:00 22.9 0 Calma 10 Oeste -- -- -- 51
2017-09-30 14:00:00 22 4 Noroeste 12 Sudoeste -- -- -- 56
2017-09-30 13:00:00 20.8 3 Noroeste 9 Oeste -- -- -- 62
2017-09-30 12:00:00 18.5 3 Noroeste 9 Oeste -- -- -- 68
2017-09-30 11:00:00 16.5 0 Calma 5 Sudeste -- -- -- 74
2017-09-30 10:00:00 15 0 Calma 5 Este -- -- -- 76
2017-09-30 09:00:00 15.1 0 Calma 5 Sudeste -- -- -- 73
2017-09-30 08:00:00 15.6 2 Este 6 Este -- -- -- 70
2017-09-30 07:00:00 15.6 2 Este 9 Norte -- -- -- 68
2017-09-30 06:00:00 17.4 5 Este 13 Sur -- -- -- 60
2017-09-30 05:00:00 17.2 4 Este 10 Este -- -- -- 58
2017-09-30 04:00:00 17.8 5 Sudeste 12 Sudeste -- -- -- 54
2017-09-30 03:00:00 18 2 Este 15 Sudeste -- -- -- 53
2017-09-30 02:00:00 18.4 6 Sudeste 16 Sudeste -- -- -- 51
2017-09-30 01:00:00 19 9 Sudeste 16 Sudeste -- -- -- 50
2017-09-30 00:00:00 19 8 Sudeste 14 Sudeste -- -- -- 50
2017-09-29 23:00:00 19.3 7 Sudeste 14 Sudeste -- -- -- 50
2017-09-29 22:00:00 19.8 7 Sudeste 13 Sudeste -- -- -- 50
2017-09-29 21:00:00 20.4 8 Sudeste 14 Sudeste -- -- -- 49
2017-09-29 20:00:00 22.1 2 Sudoeste 9 Oeste -- -- -- 46
2017-09-29 19:00:00 23.7 4 Oeste 11 Sur -- -- -- 45
2017-09-29 18:00:00 23.6 5 Oeste 18 Oeste -- -- -- 45
2017-09-29 17:00:00 23.8 6 Oeste 17 Oeste -- -- -- 45
2017-09-29 16:00:00 24.9 5 Noroeste 11 Noroeste -- -- -- 45
2017-09-29 15:00:00 23 5 Oeste 14 Norte -- -- -- 49
2017-09-29 14:00:00 22.5 3 Norte 13 Oeste -- -- -- 53
2017-09-29 13:00:00 20.4 4 Oeste 13 Oeste -- -- -- 62
2017-09-29 12:00:00 18.4 2 Nordeste 8 Oeste -- -- -- 71
2017-09-29 11:00:00 16.6 0 Calma 5 Oeste -- -- -- 79
2017-09-29 10:00:00 15.4 0 Calma 2 Sudeste -- -- -- 83
2017-09-29 09:00:00 15.2 0 Calma 3 Sudeste -- -- -- 82
2017-09-29 08:00:00 15.1 0 Calma 3 Sudeste -- -- -- 81
2017-09-29 07:00:00 15.3 0 Calma 3 Sudeste -- -- -- 78
2017-09-29 06:00:00 16.6 3 Oeste 11 Este -- -- -- 72
2017-09-29 05:00:00 16.4 0 Calma 7 Sudeste -- -- -- 72
2017-09-29 04:00:00 16.6 0 Calma 4 Norte -- -- -- 73
2017-09-29 03:00:00 17.1 0 Calma 2 Nordeste -- -- -- 70
2017-09-29 02:00:00 17 0 Calma 4 Norte -- -- -- 68
2017-09-29 01:00:00 17.6 0 Calma 4 Nordeste -- -- -- 60
2017-09-29 00:00:00 18 2 Este 8 Noroeste -- -- -- 55
2017-09-28 23:00:00 19.3 0 Calma 16 Sur -- -- -- 53
2017-09-28 22:00:00 19.6 8 Sudeste 19 Sudeste -- -- -- 52
2017-09-28 21:00:00 20.4 8 Sudeste 29 Sudeste -- -- -- 49
2017-09-28 20:00:00 21.2 11 Sudeste 30 Sudeste -- -- -- 46
2017-09-28 19:00:00 22.3 12 Sudeste 22 Sudeste -- -- -- 45
2017-09-28 18:00:00 22.6 4 Sur 10 Sur -- -- -- 47
2017-09-28 17:00:00 23.2 4 Oeste 11 Oeste -- -- -- 48
2017-09-28 16:00:00 23.2 0 Calma 17 Oeste -- -- -- 49
2017-09-28 15:00:00 23.5 3 Sur 14 Oeste -- -- -- 53
2017-09-28 14:00:00 22.1 3 Oeste 17 Noroeste -- -- -- 53
2017-09-28 13:00:00 21.3 3 Nordeste 9 Oeste -- -- -- 62
2017-09-28 12:00:00 18.6 0 Calma 6 Sudeste -- -- -- 71
2017-09-28 11:00:00 17.3 0 Calma 8 Noroeste -- -- -- 77
2017-09-28 10:00:00 15.7 0 Calma 5 Sur -- -- -- 81
2017-09-28 09:00:00 15.4 0 Calma 6 Este -- -- -- 81
2017-09-28 08:00:00 15.5 0 Calma 5 Oeste -- -- -- 77
2017-09-28 07:00:00 16.3 0 Calma 5 Sudeste -- -- -- 77
2017-09-28 06:00:00 16.1 0 Calma 6 Este -- -- -- 75
2017-09-28 05:00:00 16.7 0 Calma 13 Norte -- -- -- 72
2017-09-28 04:00:00 17.4 4 Norte 12 Nordeste -- -- -- 69
2017-09-28 03:00:00 17.2 6 Nordeste 13 Este -- -- -- 66
2017-09-28 02:00:00 17.3 0 Calma 7 Norte -- -- -- 59
2017-09-28 01:00:00 17.7 0 Calma 6 Sudeste -- -- -- 52
2017-09-28 00:00:00 18.3 3 Sudeste 6 Sudeste -- -- -- 50
2017-09-27 23:00:00 19.2 2 Este 11 Sudeste -- -- -- 48
2017-09-27 22:00:00 19.7 4 Sur 11 Oeste -- -- -- 42
2017-09-27 21:00:00 20.3 0 Calma 8 Este -- -- -- 40
2017-09-27 20:00:00 20.6 0 Calma 4 Norte -- -- -- 40
2017-09-27 19:00:00 21.9 0 Calma 6 Sudoeste -- -- -- 39
2017-09-27 18:00:00 22.4 2 Oeste 8 Noroeste -- -- -- 39
2017-09-27 17:00:00 22.9 3 Sudoeste 15 Sudoeste -- -- -- 40
2017-09-27 16:00:00 23 4 Noroeste 15 Oeste -- -- -- 45
2017-09-27 15:00:00 22.5 3 Noroeste 13 Oeste -- -- -- 47
2017-09-27 14:00:00 22.3 4 Oeste 13 Oeste -- -- -- 48
2017-09-27 13:00:00 20.8 3 Oeste 10 Oeste -- -- -- 53
2017-09-27 12:00:00 18 0 Calma 7 Noroeste -- -- -- 68
2017-09-27 11:00:00 16.4 0 Calma 5 Oeste -- -- -- 71
2017-09-27 10:00:00 15.3 0 Calma 5 Oeste -- -- -- 74
2017-09-27 09:00:00 14.5 0 Calma 5 Este -- -- -- 76
2017-09-27 08:00:00 13.8 0 Calma 4 Este -- -- -- 78
2017-09-27 07:00:00 14.7 0 Calma -- -- -- -- -- 70
2017-09-27 06:00:00 15.1 0 Calma 3 Este -- -- -- 49
2017-09-27 05:00:00 16 0 Calma 12 Sudeste -- -- -- 42
2017-09-27 04:00:00 17.4 7 Sudeste 14 Sudeste -- -- -- 38
2017-09-27 03:00:00 15.7 2 Sudeste 18 Norte -- -- -- 40
2017-09-27 02:00:00 17.8 5 Este 13 Sudeste -- -- -- 34
2017-09-27 01:00:00 18.3 7 Sudeste 17 Sudeste -- -- -- 32
2017-09-27 00:00:00 18.5 8 Sudeste 17 Sudeste -- -- -- 32
2017-09-26 23:00:00 18.8 9 Sudeste 18 Sudeste -- -- -- 31
2017-09-26 22:00:00 19 6 Sudeste 17 Sudeste -- -- -- 30
2017-09-26 21:00:00 19.3 9 Sudeste 17 Sudeste -- -- -- 32
2017-09-26 20:00:00 20.9 3 Sur 14 Oeste -- -- -- 33
2017-09-26 19:00:00 23.3 5 Sudoeste 18 Oeste -- -- -- 31
2017-09-26 18:00:00 23.8 5 Noroeste 19 Oeste -- -- -- 30
2017-09-26 17:00:00 25.1 2 Noroeste 13 Norte -- -- -- 29
2017-09-26 16:00:00 25.1 5 Oeste 15 Oeste -- -- -- 28
2017-09-26 15:00:00 24.5 4 Norte 15 Noroeste -- -- -- 33
2017-09-26 14:00:00 22.4 7 Oeste 17 Oeste -- -- -- 36
2017-09-26 13:00:00 21.3 5 Oeste 17 Oeste -- -- -- 39
2017-09-26 12:00:00 19.3 2 Sudoeste 7 Sur -- -- -- 43
2017-09-26 11:00:00 17.4 0 Calma 6 Este -- -- -- 46
2017-09-26 10:00:00 15.2 4 Este 7 Sudeste -- -- -- 50
2017-09-26 09:00:00 15.2 3 Este 8 Sudeste -- -- -- 49
2017-09-26 08:00:00 14.9 3 Este 11 Nordeste -- -- -- 47
2017-09-26 07:00:00 16.3 3 Norte 10 Sudeste -- -- -- 43
2017-09-26 06:00:00 17.1 6 Sudeste 14 Sudeste -- -- -- 42
2017-09-26 05:00:00 17.3 6 Sudeste 15 Sudeste -- -- -- 42
2017-09-26 04:00:00 17.3 5 Este 12 Sudeste -- -- -- 42
2017-09-26 03:00:00 17.8 7 Sudeste 14 Sudeste -- -- -- 42
2017-09-26 02:00:00 18.2 6 Sudeste 12 Sudeste -- -- -- 43
2017-09-26 01:00:00 18.1 4 Sudeste 13 Sudeste -- -- -- 43
2017-09-26 00:00:00 18.8 5 Sudeste 12 Sudeste -- -- -- 42
2017-09-25 23:00:00 19.4 5 Sudeste 9 Sudeste -- -- -- 42
2017-09-25 22:00:00 20.1 4 Sudeste 10 Sudeste -- -- -- 41
2017-09-25 21:00:00 20.8 4 Sudeste 10 Sudoeste -- -- -- 39
2017-09-25 20:00:00 22.6 2 Sudoeste 19 Oeste -- -- -- 38
2017-09-25 19:00:00 24.1 6 Oeste 19 Oeste -- -- -- 35
2017-09-25 18:00:00 25.2 8 Oeste 24 Oeste -- -- -- 33
2017-09-25 17:00:00 25.9 8 Oeste 22 Oeste -- -- -- 33
2017-09-25 16:00:00 27.8 4 Sudoeste 18 Sudoeste -- -- -- 36
2017-09-25 15:00:00 24.9 6 Oeste 17 Oeste -- -- -- 39
2017-09-25 14:00:00 24.3 3 Noroeste 12 Noroeste -- -- -- 45
2017-09-25 13:00:00 22 3 Noroeste 12 Norte -- -- -- 50
2017-09-25 12:00:00 20.2 3 Noroeste 7 Norte -- -- -- 55
2017-09-25 11:00:00 18.4 0 Calma 5 Sudeste -- -- -- 58
2017-09-25 10:00:00 16.2 3 Este 5 Este -- -- -- 61
2017-09-25 09:00:00 16 0 Calma 6 Este -- -- -- 60
2017-09-25 08:00:00 16.1 0 Calma 5 Sudeste -- -- -- 57
2017-09-25 07:00:00 17.1 4 Este 9 Sudeste -- -- -- 54
2017-09-25 06:00:00 17.5 5 Este 12 Sudeste -- -- -- 51
2017-09-25 05:00:00 17.7 3 Este 11 Este -- -- -- 50
2017-09-25 04:00:00 17.9 6 Este 16 Sudeste -- -- -- 48
2017-09-25 03:00:00 18.4 6 Sudeste 15 Sudeste -- -- -- 46
2017-09-25 02:00:00 18.5 9 Sudeste 14 Sudeste -- -- -- 45
2017-09-25 01:00:00 18.6 10 Sudeste 15 Sudeste -- -- -- 44
2017-09-25 00:00:00 19.3 6 Sudeste 13 Sudeste -- -- -- 42
2017-09-24 23:00:00 19.6 6 Sudeste 16 Sudeste -- -- -- 39
2017-09-24 22:00:00 20 8 Sudeste 18 Sudeste -- -- -- 35
2017-09-24 21:00:00 20.8 6 Sudeste 12 Sudeste -- -- -- 35
2017-09-24 20:00:00 23.1 2 Noroeste 9 Sudoeste -- -- -- 33
2017-09-24 19:00:00 24.5 2 Noroeste 12 Noroeste -- -- -- 32
2017-09-24 18:00:00 25.4 4 Noroeste 13 Noroeste -- -- -- 33
2017-09-24 17:00:00 25.9 3 Noroeste 16 Oeste -- -- -- 33
2017-09-24 16:00:00 26.5 4 Oeste 15 Oeste -- -- -- 33
2017-09-24 15:00:00 25.2 5 Noroeste 17 Noroeste -- -- -- 38
2017-09-24 14:00:00 23.4 5 Oeste 12 Oeste -- -- -- 50
2017-09-24 13:00:00 21.2 3 Oeste 10 Oeste -- -- -- 58
2017-09-24 12:00:00 18.6 0 Calma 6 Noroeste -- -- -- 65
2017-09-24 11:00:00 16.8 0 Calma 5 Este -- -- -- 68
2017-09-24 10:00:00 14.9 0 Calma 5 Sudeste -- -- -- 72
2017-09-24 09:00:00 14.5 0 Calma 5 Este -- -- -- 71
2017-09-24 08:00:00 14.5 0 Calma 6 Este -- -- -- 71
2017-09-24 07:00:00 14.9 3 Este 4 Este -- -- -- 67
2017-09-24 06:00:00 15.2 4 Este 6 Este -- -- -- 59
2017-09-24 05:00:00 15.8 0 Calma 4 Nordeste -- -- -- 60
2017-09-24 04:00:00 16.3 0 Calma 6 Sudeste -- -- -- 54
2017-09-24 03:00:00 16.4 0 Calma 3 Sudeste -- -- -- 50
2017-09-24 02:00:00 17 0 Calma 6 Nordeste -- -- -- 46
2017-09-24 01:00:00 17.8 0 Calma 13 Sudeste -- -- -- 43
2017-09-24 00:00:00 19.3 7 Sudeste 16 Sudeste -- -- -- 41
2017-09-23 23:00:00 19 9 Sudeste 15 Sudeste -- -- -- 41
2017-09-23 22:00:00 19.5 8 Sudeste 17 Sudeste -- -- -- 39
2017-09-23 21:00:00 19.7 10 Sudeste 17 Sudeste -- -- -- 38
2017-09-23 20:00:00 21.6 0 Calma 8 Noroeste -- -- -- 38
2017-09-23 19:00:00 23.2 3 Noroeste 13 Oeste -- -- -- 37
2017-09-23 18:00:00 24 3 Noroeste 13 Noroeste -- -- -- 38
2017-09-23 17:00:00 24.3 3 Oeste 16 Noroeste -- -- -- 41
2017-09-23 16:00:00 25.2 3 Noroeste 15 Sudoeste -- -- -- 41
2017-09-23 15:00:00 23.3 4 Noroeste 12 Oeste -- -- -- 48
2017-09-23 14:00:00 21.1 4 Oeste 14 Oeste -- -- -- 54
2017-09-23 13:00:00 19.3 3 Norte 9 Oeste -- -- -- 64
2017-09-23 12:00:00 18 3 Oeste 9 Oeste -- -- -- 69
2017-09-23 11:00:00 16.4 0 Calma 9 Oeste -- -- -- 75
2017-09-23 10:00:00 15.6 0 Calma 5 Sudoeste -- -- -- 78
2017-09-23 09:00:00 14.6 0 Calma 7 Sudeste -- -- -- 81
2017-09-23 08:00:00 14.3 0 Calma 8 Sudoeste -- -- -- 82
2017-09-23 07:00:00 14.3 0 Calma -- -- -- -- -- 82
2017-09-23 06:00:00 14.7 0 Calma 6 Sudeste -- -- -- 81
2017-09-23 05:00:00 15 2 Sur 5 Oeste -- -- -- 81
2017-09-23 04:00:00 15.7 0 Calma 4 Oeste -- -- -- 76
2017-09-23 03:00:00 16.3 0 Calma 4 Norte -- -- -- 71
2017-09-23 02:00:00 16.4 3 Norte 6 Norte -- -- -- 65
2017-09-23 01:00:00 17.8 0 Calma 6 Norte -- -- -- 57
2017-09-23 00:00:00 18.6 0 Calma 14 Sudeste -- -- -- 50